createdAt,value
2017-03-29T00:01:15.517Z,22.81
2017-03-29T00:02:15.450Z,22.83
2017-03-29T00:03:15.385Z,22.8
2017-03-29T00:04:15.325Z,22.85
2017-03-29T00:05:15.262Z,22.83
2017-03-29T00:06:15.202Z,22.78
2017-03-29T00:07:15.136Z,22.83
2017-03-29T00:08:15.077Z,22.83
2017-03-29T00:09:15.015Z,22.81
2017-03-29T00:10:14.953Z,22.88
2017-03-29T00:11:14.885Z,22.83
2017-03-29T00:12:14.827Z,22.85
2017-03-29T00:13:14.761Z,22.88
2017-03-29T00:14:14.392Z,22.8
2017-03-29T00:15:14.641Z,22.78
2017-03-29T00:16:14.573Z,22.85
2017-03-29T00:17:14.518Z,22.8
2017-03-29T00:18:14.447Z,22.87
2017-03-29T00:19:14.389Z,22.87
2017-03-29T00:20:14.331Z,22.84
2017-03-29T00:21:14.268Z,22.8
2017-03-29T00:22:14.593Z,22.84
2017-03-29T00:23:14.141Z,22.81
2017-03-29T00:24:14.078Z,22.81
2017-03-29T00:25:14.015Z,22.78
2017-03-29T00:26:13.954Z,22.87
2017-03-29T00:27:13.896Z,22.81
2017-03-29T00:28:13.517Z,22.81
2017-03-29T00:29:13.769Z,22.84
2017-03-29T00:30:13.701Z,22.8
2017-03-29T00:31:13.638Z,22.84
2017-03-29T00:32:13.583Z,22.88
2017-03-29T00:33:13.520Z,22.81
2017-03-29T00:34:13.454Z,22.76
2017-03-29T00:35:13.394Z,22.81
2017-03-29T00:36:13.331Z,22.9
2017-03-29T00:37:13.273Z,22.78
2017-03-29T00:38:13.214Z,22.76
2017-03-29T00:39:13.144Z,22.84
2017-03-29T00:40:13.082Z,22.83
2017-03-29T00:41:13.049Z,22.84
2017-03-29T00:42:12.960Z,22.84
2017-03-29T00:43:12.893Z,22.81
2017-03-29T00:44:12.829Z,22.83
2017-03-29T00:45:12.802Z,22.76
2017-03-29T00:46:12.709Z,22.81
2017-03-29T00:47:12.644Z,22.81
2017-03-29T00:48:12.579Z,22.8
2017-03-29T00:49:12.518Z,22.81
2017-03-29T00:50:12.459Z,22.85
2017-03-29T00:51:12.392Z,22.81
2017-03-29T00:52:12.331Z,22.81
2017-03-29T00:53:12.274Z,22.81
2017-03-29T00:54:11.898Z,22.78
2017-03-29T00:55:12.148Z,22.78
2017-03-29T00:56:12.082Z,22.83
2017-03-29T00:57:11.709Z,22.75
2017-03-29T00:58:11.649Z,22.81
2017-03-29T00:59:11.895Z,22.81
2017-03-29T01:00:11.834Z,22.81
2017-03-29T01:01:11.774Z,22.78
2017-03-29T01:02:11.397Z,22.84
2017-03-29T01:03:11.647Z,22.75
2017-03-29T01:04:11.582Z,22.76
2017-03-29T01:05:11.524Z,22.78
2017-03-29T01:06:11.453Z,22.76
2017-03-29T01:07:11.395Z,22.73
2017-03-29T01:08:11.333Z,22.85
2017-03-29T01:09:11.271Z,22.81
2017-03-29T01:10:10.917Z,22.83
2017-03-29T01:11:11.148Z,22.72
2017-03-29T01:12:11.084Z,22.75
2017-03-29T01:13:11.018Z,22.73
2017-03-29T01:14:10.958Z,22.83
2017-03-29T01:15:10.923Z,22.72
2017-03-29T01:16:10.835Z,22.87
2017-03-29T01:17:10.771Z,22.75
2017-03-29T01:18:10.708Z,22.8
2017-03-29T01:19:10.647Z,22.7
2017-03-29T01:20:10.583Z,22.81
2017-03-29T01:21:10.214Z,22.75
2017-03-29T01:22:10.460Z,22.76
2017-03-29T01:23:10.397Z,22.73
2017-03-29T01:24:10.334Z,22.76
2017-03-29T01:25:10.273Z,22.78
2017-03-29T01:26:09.902Z,22.75
2017-03-29T01:27:10.144Z,22.75
2017-03-29T01:28:10.093Z,22.84
2017-03-29T01:29:10.023Z,22.76
2017-03-29T01:30:09.961Z,22.78
2017-03-29T01:31:09.897Z,22.78
2017-03-29T01:32:09.836Z,22.83
2017-03-29T01:33:09.775Z,22.73
2017-03-29T01:34:09.404Z,22.83
2017-03-29T01:35:09.336Z,22.81
2017-03-29T01:36:08.971Z,22.84
2017-03-29T01:37:09.524Z,22.8
2017-03-29T01:38:09.468Z,22.78
2017-03-29T01:39:09.399Z,22.84
2017-03-29T01:40:09.338Z,22.72
2017-03-29T01:41:09.275Z,22.8
2017-03-29T01:42:09.243Z,22.63
2017-03-29T01:43:09.148Z,22.55
2017-03-29T01:44:09.083Z,22.55
2017-03-29T01:45:09.021Z,22.62
2017-03-29T01:46:08.974Z,22.53
2017-03-29T01:47:08.896Z,22.5
2017-03-29T01:48:08.840Z,22.44
2017-03-29T01:49:08.773Z,22.5
2017-03-29T01:50:08.402Z,22.39
2017-03-29T01:51:08.651Z,22.45
2017-03-29T01:52:08.582Z,22.45
2017-03-29T01:53:08.523Z,22.45
2017-03-29T01:54:08.459Z,22.5
2017-03-29T01:55:08.398Z,22.43
2017-03-29T01:56:08.339Z,22.6
2017-03-29T01:57:08.277Z,22.59
2017-03-29T01:58:08.208Z,22.55
2017-03-29T01:59:07.840Z,22.6
2017-03-29T02:00:07.775Z,22.57
2017-03-29T02:01:08.022Z,22.59
2017-03-29T02:02:07.961Z,22.62
2017-03-29T02:03:07.895Z,22.59
2017-03-29T02:04:07.835Z,22.62
2017-03-29T02:05:07.462Z,22.55
2017-03-29T02:06:07.708Z,22.55
2017-03-29T02:07:07.649Z,22.6
2017-03-29T02:08:07.583Z,22.66
2017-03-29T02:09:07.548Z,22.54
2017-03-29T02:10:07.462Z,22.62
2017-03-29T02:11:07.396Z,22.54
2017-03-29T02:12:07.335Z,22.53
2017-03-29T02:13:07.265Z,22.53
2017-03-29T02:14:07.209Z,22.57
2017-03-29T02:15:07.149Z,22.69
2017-03-29T02:16:07.108Z,22.6
2017-03-29T02:17:07.024Z,22.59
2017-03-29T02:18:06.966Z,22.62
2017-03-29T02:19:06.896Z,22.59
2017-03-29T02:20:06.832Z,22.55
2017-03-29T02:21:06.456Z,22.6
2017-03-29T02:22:06.400Z,22.54
2017-03-29T02:23:06.334Z,22.59
2017-03-29T02:24:06.274Z,22.66
2017-03-29T02:25:06.213Z,22.62
2017-03-29T02:26:06.455Z,22.57
2017-03-29T02:27:06.397Z,22.57
2017-03-29T02:28:06.706Z,22.57
2017-03-29T02:29:06.272Z,22.65
2017-03-29T02:30:06.208Z,22.55
2017-03-29T02:31:06.149Z,22.63
2017-03-29T02:32:06.102Z,22.65
2017-03-29T02:33:06.049Z,22.6
2017-03-29T02:34:05.959Z,22.63
2017-03-29T02:35:05.274Z,22.6
2017-03-29T02:36:05.834Z,22.57
2017-03-29T02:37:05.772Z,22.5
2017-03-29T02:38:05.705Z,22.68
2017-03-29T02:39:05.668Z,22.65
2017-03-29T02:40:05.582Z,22.6
2017-03-29T02:41:05.517Z,22.66
2017-03-29T02:42:05.454Z,22.57
2017-03-29T02:43:05.088Z,22.59
2017-03-29T02:44:05.335Z,22.57
2017-03-29T02:45:04.959Z,22.54
2017-03-29T02:46:05.209Z,22.57
2017-03-29T02:47:05.147Z,22.55
2017-03-29T02:48:05.079Z,22.62
2017-03-29T02:49:05.016Z,22.53
2017-03-29T02:51:04.896Z,22.57
2017-03-29T02:52:04.831Z,22.54
2017-03-29T02:53:04.768Z,22.55
2017-03-29T02:54:04.705Z,22.59
2017-03-29T02:55:04.642Z,22.6
2017-03-29T02:56:04.578Z,22.57
2017-03-29T02:57:04.201Z,22.57
2017-03-29T02:58:04.142Z,22.62
2017-03-29T02:59:04.423Z,22.51
2017-03-29T03:00:04.329Z,22.62
2017-03-29T03:01:04.264Z,22.57
2017-03-29T03:02:03.898Z,22.5
2017-03-29T03:03:04.140Z,22.55
2017-03-29T03:04:04.078Z,22.51
2017-03-29T03:05:04.016Z,22.48
2017-03-29T03:06:03.959Z,22.51
2017-03-29T03:07:03.890Z,22.54
2017-03-29T03:08:03.826Z,22.51
2017-03-29T03:09:03.769Z,22.39
2017-03-29T03:10:03.701Z,22.44
2017-03-29T03:11:03.640Z,22.59
2017-03-29T03:12:03.581Z,22.5
2017-03-29T03:13:03.516Z,22.45
2017-03-29T03:14:03.448Z,22.47
2017-03-29T03:15:03.399Z,22.51
2017-03-29T03:16:03.694Z,22.54
2017-03-29T03:17:02.958Z,22.5
2017-03-29T03:18:03.206Z,22.5
2017-03-29T03:19:03.139Z,22.47
2017-03-29T03:20:03.078Z,22.48
2017-03-29T03:21:03.011Z,22.45
2017-03-29T03:22:02.957Z,22.47
2017-03-29T03:23:02.891Z,22.43
2017-03-29T03:24:02.823Z,22.39
2017-03-29T03:25:02.764Z,22.43
2017-03-29T03:26:02.704Z,22.45
2017-03-29T03:27:02.641Z,22.45
2017-03-29T03:28:02.574Z,22.45
2017-03-29T03:29:02.515Z,22.35
2017-03-29T03:30:02.461Z,22.41
2017-03-29T03:31:02.384Z,22.38
2017-03-29T03:32:02.324Z,22.44
2017-03-29T03:33:02.260Z,22.33
2017-03-29T03:34:02.199Z,22.43
2017-03-29T03:35:01.830Z,22.38
2017-03-29T03:36:02.076Z,22.48
2017-03-29T03:37:02.007Z,22.43
2017-03-29T03:38:01.951Z,22.39
2017-03-29T03:39:01.887Z,22.41
2017-03-29T03:40:01.824Z,22.39
2017-03-29T03:41:01.759Z,22.36
2017-03-29T03:42:01.693Z,22.36
2017-03-29T03:43:01.634Z,22.43
2017-03-29T03:44:01.595Z,22.39
2017-03-29T03:45:01.508Z,22.41
2017-03-29T03:46:01.453Z,22.43
2017-03-29T03:47:01.387Z,22.38
2017-03-29T03:48:01.007Z,22.44
2017-03-29T03:49:01.263Z,22.41
2017-03-29T03:50:01.196Z,22.44
2017-03-29T03:51:01.133Z,22.39
2017-03-29T03:52:00.762Z,22.35
2017-03-29T03:53:01.005Z,22.36
2017-03-29T03:54:00.942Z,22.43
2017-03-29T03:55:00.882Z,22.38
2017-03-29T03:56:00.821Z,22.35
2017-03-29T03:57:00.753Z,22.35
2017-03-29T03:58:00.691Z,22.36
2017-03-29T03:59:00.640Z,22.35
2017-03-29T04:00:00.565Z,22.32
2017-03-29T04:01:00.506Z,22.38
2017-03-29T04:02:00.471Z,22.39
2017-03-29T04:03:00.377Z,22.41
2017-03-29T04:04:00.321Z,22.39
2017-03-29T04:05:00.253Z,22.39
2017-03-29T04:06:00.213Z,22.33
2017-03-29T04:06:59.555Z,22.43
2017-03-29T04:08:00.076Z,22.38
2017-03-29T04:09:00.006Z,22.35
2017-03-29T04:09:59.941Z,22.38
2017-03-29T04:10:59.879Z,22.25
2017-03-29T04:11:59.816Z,22.32
2017-03-29T04:12:59.750Z,22.23
2017-03-29T04:13:59.691Z,22.28
2017-03-29T04:15:00.379Z,22.22
2017-03-29T04:15:59.564Z,22.33
2017-03-29T04:16:59.507Z,22.28
2017-03-29T04:17:59.441Z,22.26
2017-03-29T04:18:59.375Z,22.25
2017-03-29T04:19:59.309Z,22.29
2017-03-29T04:20:59.247Z,22.2
2017-03-29T04:21:59.189Z,22.15
2017-03-29T04:22:59.125Z,22.22
2017-03-29T04:23:59.071Z,22.2
2017-03-29T04:24:59.005Z,22.17
2017-03-29T04:25:58.933Z,22.14
2017-03-29T04:26:58.873Z,22.15
2017-03-29T04:27:58.815Z,22.14
2017-03-29T04:28:58.750Z,22.15
2017-03-29T04:29:58.688Z,22.15
2017-03-29T04:30:58.624Z,22.1
2017-03-29T04:31:58.246Z,22.14
2017-03-29T04:32:58.501Z,22.15
2017-03-29T04:33:58.431Z,22.14
2017-03-29T04:34:58.370Z,22.1
2017-03-29T04:35:58.310Z,22.18
2017-03-29T04:36:58.262Z,22.13
2017-03-29T04:37:58.182Z,22.14
2017-03-29T04:38:58.122Z,22.08
2017-03-29T04:39:58.066Z,22.08
2017-03-29T04:40:58.026Z,22.15
2017-03-29T04:41:57.956Z,22.1
2017-03-29T04:42:57.867Z,22.11
2017-03-29T04:43:57.805Z,22.07
2017-03-29T04:44:57.744Z,22.04
2017-03-29T04:45:57.682Z,22.1
2017-03-29T04:46:57.618Z,22.13
2017-03-29T04:47:57.559Z,22.08
2017-03-29T04:48:57.864Z,22.08
2017-03-29T04:49:57.430Z,22.08
2017-03-29T04:50:57.365Z,22.14
2017-03-29T04:51:57.301Z,22.06
2017-03-29T04:52:57.242Z,22.1
2017-03-29T04:53:57.177Z,21.99
2017-03-29T04:54:57.114Z,22.11
2017-03-29T04:55:57.051Z,22.08
2017-03-29T04:56:56.986Z,22.08
2017-03-29T04:57:56.924Z,22.06
2017-03-29T04:58:56.867Z,22.04
2017-03-29T04:59:56.800Z,22.06
2017-03-29T05:00:56.738Z,22.06
2017-03-29T05:01:56.674Z,22.06
2017-03-29T05:02:56.613Z,22
2017-03-29T05:03:56.238Z,22.07
2017-03-29T05:04:56.490Z,22.07
2017-03-29T05:05:56.425Z,22.04
2017-03-29T05:06:56.360Z,21.98
2017-03-29T05:07:56.293Z,21.93
2017-03-29T05:08:56.232Z,22.02
2017-03-29T05:09:56.170Z,22.02
2017-03-29T05:10:56.106Z,21.96
2017-03-29T05:11:56.044Z,21.93
2017-03-29T05:12:55.984Z,22.07
2017-03-29T05:13:55.922Z,22.02
2017-03-29T05:14:55.850Z,22
2017-03-29T05:15:55.795Z,22.02
2017-03-29T05:16:55.731Z,21.96
2017-03-29T05:17:55.663Z,22.02
2017-03-29T05:18:55.600Z,22.02
2017-03-29T05:19:55.538Z,22.06
2017-03-29T05:20:55.480Z,21.99
2017-03-29T05:21:55.412Z,22.02
2017-03-29T05:22:55.360Z,22.04
2017-03-29T05:23:55.287Z,22.02
2017-03-29T05:24:54.915Z,22
2017-03-29T05:25:55.162Z,22.07
2017-03-29T05:26:54.785Z,22.04
2017-03-29T05:27:55.034Z,22.06
2017-03-29T05:28:54.660Z,21.98
2017-03-29T05:29:54.908Z,21.98
2017-03-29T05:30:54.534Z,21.96
2017-03-29T05:31:54.787Z,22.02
2017-03-29T05:32:54.716Z,21.96
2017-03-29T05:33:54.658Z,22.04
2017-03-29T05:34:54.288Z,22.02
2017-03-29T05:35:54.530Z,22
2017-03-29T05:36:54.470Z,22.02
2017-03-29T05:37:54.404Z,22.04
2017-03-29T05:38:54.027Z,21.96
2017-03-29T05:39:53.967Z,22.06
2017-03-29T05:40:53.905Z,22.06
2017-03-29T05:41:54.153Z,22.04
2017-03-29T05:42:54.088Z,22.04
2017-03-29T05:43:54.025Z,21.98
2017-03-29T05:44:53.962Z,21.96
2017-03-29T05:45:53.906Z,21.99
2017-03-29T05:46:53.845Z,22.06
2017-03-29T05:47:53.776Z,22.08
2017-03-29T05:48:53.713Z,22.07
2017-03-29T05:49:53.650Z,21.99
2017-03-29T05:50:53.585Z,22.02
2017-03-29T05:51:53.522Z,22
2017-03-29T05:52:53.148Z,21.98
2017-03-29T05:53:53.402Z,22.06
2017-03-29T05:54:53.036Z,21.99
2017-03-29T05:55:53.273Z,22.04
2017-03-29T05:56:53.207Z,22.02
2017-03-29T05:57:53.144Z,22.07
2017-03-29T05:58:53.093Z,22.07
2017-03-29T05:59:52.709Z,22.07
2017-03-29T06:00:52.986Z,21.95
2017-03-29T06:01:52.898Z,21.99
2017-03-29T06:02:52.829Z,21.95
2017-03-29T06:03:52.768Z,21.96
2017-03-29T06:04:52.706Z,22.02
2017-03-29T06:05:52.643Z,22.07
2017-03-29T06:06:52.578Z,22.04
2017-03-29T06:07:52.518Z,21.95
2017-03-29T06:08:52.450Z,21.95
2017-03-29T06:09:52.391Z,21.89
2017-03-29T06:10:52.324Z,22.06
2017-03-29T06:11:52.269Z,22.02
2017-03-29T06:12:52.198Z,22.06
2017-03-29T06:13:51.829Z,22.06
2017-03-29T06:14:52.077Z,21.99
2017-03-29T06:15:52.122Z,22.07
2017-03-29T06:16:51.973Z,22.04
2017-03-29T06:17:51.895Z,22.04
2017-03-29T06:18:51.820Z,21.98
2017-03-29T06:19:51.762Z,22.04
2017-03-29T06:20:52.045Z,22
2017-03-29T06:21:51.327Z,22
2017-03-29T06:22:51.569Z,22
2017-03-29T06:23:51.507Z,22
2017-03-29T06:24:51.450Z,22
2017-03-29T06:25:51.395Z,21.98
2017-03-29T06:26:51.318Z,21.98
2017-03-29T06:27:51.255Z,22.06
2017-03-29T06:28:50.881Z,22.1
2017-03-29T06:29:51.128Z,22.1
2017-03-29T06:30:50.762Z,22.02
2017-03-29T06:31:51.006Z,21.95
2017-03-29T06:32:50.946Z,22.08
2017-03-29T06:33:50.568Z,22.08
2017-03-29T06:34:50.502Z,22.08
2017-03-29T06:35:50.746Z,22.11
2017-03-29T06:36:50.690Z,22.08
2017-03-29T06:37:50.623Z,22.1
2017-03-29T06:38:50.564Z,22.1
2017-03-29T06:39:50.498Z,22.11
2017-03-29T06:40:50.443Z,22.08
2017-03-29T06:41:50.372Z,22.15
2017-03-29T06:42:50.002Z,22.13
2017-03-29T06:43:50.252Z,22.06
2017-03-29T06:44:50.184Z,22.1
2017-03-29T06:45:50.122Z,22.11
2017-03-29T06:46:50.090Z,22.11
2017-03-29T06:47:50.039Z,22.06
2017-03-29T06:48:49.937Z,21.95
2017-03-29T06:49:49.871Z,21.98
2017-03-29T06:50:49.820Z,21.89
2017-03-29T06:51:49.746Z,21.98
2017-03-29T06:52:49.679Z,22
2017-03-29T06:53:49.619Z,21.98
2017-03-29T06:54:49.557Z,21.96
2017-03-29T06:55:49.196Z,22.06
2017-03-29T06:56:49.437Z,21.99
2017-03-29T06:57:49.376Z,22.08
2017-03-29T06:58:49.304Z,22.13
2017-03-29T06:59:49.242Z,22.1
2017-03-29T07:00:49.178Z,22.06
2017-03-29T07:01:49.119Z,22.07
2017-03-29T07:02:49.056Z,22.04
2017-03-29T07:03:49.136Z,22.07
2017-03-29T07:04:49.287Z,22
2017-03-29T07:05:48.871Z,22.06
2017-03-29T07:06:48.800Z,21.95
2017-03-29T07:07:48.734Z,21.95
2017-03-29T07:08:48.672Z,21.93
2017-03-29T07:09:48.611Z,21.93
2017-03-29T07:10:48.548Z,21.92
2017-03-29T07:11:48.481Z,21.89
2017-03-29T07:12:48.426Z,21.76
2017-03-29T07:13:48.360Z,21.79
2017-03-29T07:14:48.307Z,21.79
2017-03-29T07:15:48.260Z,21.8
2017-03-29T07:16:48.170Z,21.77
2017-03-29T07:17:47.841Z,21.77
2017-03-29T07:18:48.082Z,21.7
2017-03-29T07:19:48.017Z,21.7
2017-03-29T07:20:47.928Z,21.79
2017-03-29T07:21:47.861Z,21.79
2017-03-29T07:22:47.810Z,21.76
2017-03-29T07:23:47.460Z,21.8
2017-03-29T07:24:47.668Z,21.83
2017-03-29T07:25:47.658Z,21.83
2017-03-29T07:26:47.583Z,21.91
2017-03-29T07:27:47.169Z,21.91
2017-03-29T07:28:47.413Z,21.92
2017-03-29T07:29:47.353Z,22.02
2017-03-29T07:30:47.347Z,21.95
2017-03-29T07:31:47.246Z,22.02
2017-03-29T07:32:47.160Z,21.99
2017-03-29T07:33:47.101Z,21.96
2017-03-29T07:34:47.037Z,21.93
2017-03-29T07:35:46.970Z,21.99
2017-03-29T07:36:46.908Z,21.92
2017-03-29T07:37:46.845Z,21.98
2017-03-29T07:38:46.827Z,21.98
2017-03-29T07:39:46.723Z,22.07
2017-03-29T07:40:46.362Z,22.06
2017-03-29T07:41:46.623Z,22
2017-03-29T07:42:46.545Z,22
2017-03-29T07:43:46.222Z,22.04
2017-03-29T07:44:46.459Z,22.06
2017-03-29T07:45:46.398Z,22.07
2017-03-29T07:46:46.378Z,22.04
2017-03-29T07:47:46.404Z,22.07
2017-03-29T07:48:45.876Z,22.04
2017-03-29T07:49:46.177Z,21.99
2017-03-29T07:50:46.099Z,21.99
2017-03-29T07:51:45.692Z,22.02
2017-03-29T07:52:46.177Z,21.93
2017-03-29T07:53:45.953Z,21.98
2017-03-29T07:54:45.559Z,21.96
2017-03-29T07:55:45.722Z,21.98
2017-03-29T07:56:45.351Z,21.96
2017-03-29T07:57:45.592Z,22.04
2017-03-29T07:58:45.244Z,21.99
2017-03-29T07:59:45.470Z,22.1
2017-03-29T08:00:45.428Z,22.14
2017-03-29T08:01:45.327Z,22.06
2017-03-29T08:02:45.276Z,22.07
2017-03-29T08:03:45.206Z,22.02
2017-03-29T08:04:45.144Z,22.1
2017-03-29T08:05:45.112Z,22.07
2017-03-29T08:06:45.026Z,22.06
2017-03-29T08:07:44.955Z,22.13
2017-03-29T08:08:44.935Z,22.04
2017-03-29T08:09:44.866Z,22.06
2017-03-29T08:10:44.776Z,22.11
2017-03-29T08:11:44.706Z,22.08
2017-03-29T08:12:44.636Z,22.15
2017-03-29T08:13:44.618Z,22.08
2017-03-29T08:14:44.892Z,22.13
2017-03-29T08:15:44.452Z,22.14
2017-03-29T08:16:44.387Z,22.13
2017-03-29T08:17:44.336Z,22.15
2017-03-29T08:18:44.264Z,22.13
2017-03-29T08:19:44.205Z,22.17
2017-03-29T08:20:44.503Z,22.14
2017-03-29T08:21:44.126Z,22.14
2017-03-29T08:22:43.431Z,22.15
2017-03-29T08:23:44.020Z,22.17
2017-03-29T08:24:43.911Z,22.14
2017-03-29T08:25:43.923Z,22.07
2017-03-29T08:26:44.051Z,22.11
2017-03-29T08:27:43.754Z,22.1
2017-03-29T08:28:43.360Z,22.08
2017-03-29T08:29:43.596Z,22.11
2017-03-29T08:30:43.302Z,22.13
2017-03-29T08:31:43.502Z,22.07
2017-03-29T08:32:43.110Z,22.07
2017-03-29T08:33:43.391Z,22.06
2017-03-29T08:34:43.362Z,22.08
2017-03-29T08:35:43.305Z,22.15
2017-03-29T08:36:43.151Z,22.13
2017-03-29T08:37:43.373Z,22.18
2017-03-29T08:38:42.710Z,22.13
2017-03-29T08:39:43.025Z,22.15
2017-03-29T08:40:42.997Z,22.13
2017-03-29T08:41:42.524Z,22.17
2017-03-29T08:42:42.896Z,22.17
2017-03-29T08:43:42.436Z,22.14
2017-03-29T08:44:42.321Z,22.15
2017-03-29T08:45:42.580Z,22.13
2017-03-29T08:46:42.522Z,22.11
2017-03-29T08:47:42.459Z,22.17
2017-03-29T08:48:42.418Z,22.18
2017-03-29T08:49:42.351Z,22.18
2017-03-29T08:50:42.255Z,22.17
2017-03-29T08:51:42.186Z,22.08
2017-03-29T08:52:42.179Z,22.11
2017-03-29T08:53:42.112Z,22.17
2017-03-29T08:54:42.069Z,22.13
2017-03-29T08:55:41.956Z,22.1
2017-03-29T08:56:41.884Z,22.17
2017-03-29T08:57:41.833Z,22.14
2017-03-29T08:58:41.811Z,22.17
2017-03-29T08:59:41.749Z,22.15
2017-03-29T09:00:41.016Z,22.22
2017-03-29T09:01:41.586Z,22.2
2017-03-29T09:02:41.492Z,22.29
2017-03-29T09:03:41.430Z,22.23
2017-03-29T09:04:41.366Z,22.28
2017-03-29T09:05:41.305Z,22.23
2017-03-29T09:06:40.933Z,22.28
2017-03-29T09:07:41.181Z,22.23
2017-03-29T09:08:40.877Z,22.29
2017-03-29T09:09:41.086Z,22.33
2017-03-29T09:10:40.761Z,22.33
2017-03-29T09:11:40.939Z,22.32
2017-03-29T09:12:40.924Z,22.41
2017-03-29T09:13:40.818Z,22.39
2017-03-29T09:14:40.739Z,22.36
2017-03-29T09:15:40.680Z,22.44
2017-03-29T09:16:40.616Z,22.39
2017-03-29T09:17:40.553Z,22.39
2017-03-29T09:18:40.492Z,22.5
2017-03-29T09:19:40.427Z,22.51
2017-03-29T09:20:40.389Z,22.44
2017-03-29T09:21:40.348Z,22.45
2017-03-29T09:22:40.250Z,22.48
2017-03-29T09:23:40.263Z,22.54
2017-03-29T09:24:39.880Z,22.51
2017-03-29T09:25:40.077Z,22.54
2017-03-29T09:26:40.139Z,22.5
2017-03-29T09:27:39.677Z,22.51
2017-03-29T09:28:40.409Z,22.57
2017-03-29T09:29:39.988Z,22.57
2017-03-29T09:30:39.915Z,22.57
2017-03-29T09:31:39.697Z,22.57
2017-03-29T09:32:39.685Z,22.6
2017-03-29T09:33:39.626Z,22.57
2017-03-29T09:34:39.574Z,22.6
2017-03-29T09:35:39.146Z,22.59
2017-03-29T09:36:39.404Z,22.66
2017-03-29T09:37:39.093Z,22.59
2017-03-29T09:38:39.558Z,22.6
2017-03-29T09:39:39.286Z,22.63
2017-03-29T09:40:39.249Z,22.63
2017-03-29T09:41:39.070Z,22.62
2017-03-29T09:42:39.037Z,22.59
2017-03-29T09:43:38.999Z,22.75
2017-03-29T09:44:39.215Z,22.65
2017-03-29T09:45:39.318Z,22.73
2017-03-29T09:46:38.792Z,22.7
2017-03-29T09:47:38.786Z,22.63
2017-03-29T09:48:38.982Z,22.73
2017-03-29T09:49:38.614Z,22.73
2017-03-29T09:50:38.259Z,22.7
2017-03-29T09:51:38.450Z,22.69
2017-03-29T09:52:38.396Z,22.73
2017-03-29T09:53:38.437Z,22.75
2017-03-29T09:54:38.364Z,22.78
2017-03-29T09:55:38.245Z,22.81
2017-03-29T09:56:38.298Z,22.72
2017-03-29T09:57:38.110Z,22.76
2017-03-29T09:58:38.027Z,22.78
2017-03-29T09:59:37.977Z,22.8
2017-03-29T10:00:37.993Z,22.75
2017-03-29T10:01:37.871Z,22.81
2017-03-29T10:02:37.891Z,22.73
2017-03-29T10:03:37.825Z,22.8
2017-03-29T10:04:37.725Z,22.7
2017-03-29T10:05:37.733Z,22.8
2017-03-29T10:06:37.635Z,22.78
2017-03-29T10:07:37.635Z,22.72
2017-03-29T10:08:37.187Z,22.85
2017-03-29T10:09:37.071Z,22.84
2017-03-29T10:10:37.629Z,22.73
2017-03-29T10:11:37.359Z,22.84
2017-03-29T10:12:37.198Z,22.8
2017-03-29T10:13:37.233Z,22.81
2017-03-29T10:14:37.091Z,22.73
2017-03-29T10:15:37.032Z,22.7
2017-03-29T10:16:37.037Z,22.76
2017-03-29T10:17:36.966Z,22.72
2017-03-29T10:18:36.934Z,22.73
2017-03-29T10:19:36.859Z,22.73
2017-03-29T10:20:36.804Z,22.73
2017-03-29T10:21:36.368Z,22.72
2017-03-29T10:22:36.642Z,22.76
2017-03-29T10:23:36.465Z,22.85
2017-03-29T10:24:36.076Z,22.88
2017-03-29T10:25:36.354Z,22.76
2017-03-29T10:26:36.310Z,22.72
2017-03-29T10:27:35.995Z,22.7
2017-03-29T10:28:36.191Z,22.76
2017-03-29T10:29:36.220Z,22.83
2017-03-29T10:30:36.150Z,22.83
2017-03-29T10:31:36.025Z,22.78
2017-03-29T10:32:36.030Z,22.83
2017-03-29T10:33:35.512Z,22.84
2017-03-29T10:34:35.882Z,22.83
2017-03-29T10:35:35.791Z,22.76
2017-03-29T10:36:36.210Z,22.83
2017-03-29T10:37:35.700Z,22.8
2017-03-29T10:38:35.626Z,22.78
2017-03-29T10:39:35.734Z,22.8
2017-03-29T10:40:35.479Z,22.83
2017-03-29T10:41:35.406Z,22.81
2017-03-29T10:42:35.262Z,22.78
2017-03-29T10:43:35.195Z,22.8
2017-03-29T10:44:35.521Z,22.83
2017-03-29T10:45:35.073Z,22.81
2017-03-29T10:46:35.010Z,22.87
2017-03-29T10:47:35.321Z,22.8
2017-03-29T10:48:34.889Z,22.83
2017-03-29T10:49:34.822Z,22.83
2017-03-29T10:50:34.762Z,22.76
2017-03-29T10:51:34.696Z,22.83
2017-03-29T10:52:34.635Z,22.81
2017-03-29T10:53:34.580Z,22.8
2017-03-29T10:54:34.516Z,22.83
2017-03-29T10:55:34.448Z,22.85
2017-03-29T10:56:34.394Z,22.81
2017-03-29T10:57:34.339Z,22.76
2017-03-29T10:58:34.267Z,22.81
2017-03-29T10:59:33.900Z,22.83
2017-03-29T11:00:34.139Z,22.81
2017-03-29T11:01:34.078Z,22.8
2017-03-29T11:02:34.018Z,22.83
2017-03-29T11:03:33.961Z,22.83
2017-03-29T11:04:34.275Z,22.8
2017-03-29T11:05:33.521Z,22.83
2017-03-29T11:06:33.768Z,22.83
2017-03-29T11:07:33.721Z,22.81
2017-03-29T11:08:33.335Z,22.76
2017-03-29T11:09:33.579Z,22.78
2017-03-29T11:10:33.666Z,22.87
2017-03-29T11:11:33.458Z,22.81
2017-03-29T11:12:33.083Z,22.81
2017-03-29T11:13:33.334Z,22.83
2017-03-29T11:14:33.274Z,22.76
2017-03-29T11:15:32.897Z,22.8
2017-03-29T11:16:33.145Z,22.81
2017-03-29T11:17:33.082Z,22.81
2017-03-29T11:18:33.024Z,22.84
2017-03-29T11:19:32.958Z,22.76
2017-03-29T11:20:32.907Z,22.81
2017-03-29T11:21:32.846Z,22.83
2017-03-29T11:22:32.784Z,22.78
2017-03-29T11:23:32.728Z,22.8
2017-03-29T11:24:32.651Z,22.93
2017-03-29T11:25:32.584Z,22.91
2017-03-29T11:26:32.526Z,22.9
2017-03-29T11:27:32.155Z,22.8
2017-03-29T11:28:32.400Z,22.81
2017-03-29T11:29:32.348Z,22.91
2017-03-29T11:30:32.278Z,22.8
2017-03-29T11:31:32.216Z,22.88
2017-03-29T11:32:32.151Z,22.88
2017-03-29T11:33:32.133Z,22.91
2017-03-29T11:34:32.076Z,22.85
2017-03-29T11:35:31.984Z,22.91
2017-03-29T11:36:31.957Z,22.93
2017-03-29T11:37:31.937Z,22.88
2017-03-29T11:38:31.862Z,22.78
2017-03-29T11:39:31.733Z,22.85
2017-03-29T11:40:31.677Z,22.83
2017-03-29T11:41:31.622Z,22.8
2017-03-29T11:42:31.566Z,22.83
2017-03-29T11:43:31.480Z,22.84
2017-03-29T11:44:31.409Z,22.81
2017-03-29T11:45:31.034Z,22.76
2017-03-29T11:46:31.292Z,22.9
2017-03-29T11:47:31.289Z,22.83
2017-03-29T11:48:31.222Z,22.85
2017-03-29T11:49:31.322Z,22.91
2017-03-29T11:50:31.038Z,22.78
2017-03-29T11:51:30.976Z,22.83
2017-03-29T11:52:30.601Z,22.98
2017-03-29T11:53:30.846Z,22.83
2017-03-29T11:54:30.889Z,22.94
2017-03-29T11:55:30.730Z,22.83
2017-03-29T11:56:30.662Z,22.87
2017-03-29T11:57:30.681Z,22.9
2017-03-29T11:58:30.231Z,22.87
2017-03-29T11:59:30.859Z,22.94
2017-03-29T12:00:30.425Z,22.9
2017-03-29T12:01:30.353Z,22.88
2017-03-29T12:02:30.299Z,22.83
2017-03-29T12:03:30.228Z,22.94
2017-03-29T12:04:29.856Z,22.91
2017-03-29T12:05:29.805Z,22.9
2017-03-29T12:06:30.042Z,22.94
2017-03-29T12:07:29.993Z,22.93
2017-03-29T12:08:29.609Z,22.81
2017-03-29T12:09:29.852Z,22.93
2017-03-29T12:10:29.483Z,22.81
2017-03-29T12:11:29.425Z,22.83
2017-03-29T12:12:29.681Z,22.8
2017-03-29T12:13:29.838Z,22.8
2017-03-29T12:14:29.234Z,22.83
2017-03-29T12:15:29.482Z,22.93
2017-03-29T12:16:29.430Z,22.84
2017-03-29T12:17:29.369Z,22.94
2017-03-29T12:18:28.992Z,22.94
2017-03-29T12:19:29.240Z,22.84
2017-03-29T12:20:29.527Z,22.93
2017-03-29T12:21:28.800Z,22.88
2017-03-29T12:22:29.054Z,22.85
2017-03-29T12:23:28.988Z,22.83
2017-03-29T12:24:28.923Z,22.91
2017-03-29T12:25:28.861Z,22.78
2017-03-29T12:26:28.504Z,22.93
2017-03-29T12:27:28.752Z,22.88
2017-03-29T12:28:28.369Z,22.83
2017-03-29T12:29:28.640Z,22.9
2017-03-29T12:30:28.551Z,22.76
2017-03-29T12:31:28.496Z,22.84
2017-03-29T12:32:28.119Z,22.88
2017-03-29T12:33:28.113Z,22.93
2017-03-29T12:34:28.305Z,22.83
2017-03-29T12:35:28.244Z,22.91
2017-03-29T12:36:27.867Z,22.84
2017-03-29T12:37:28.123Z,22.9
2017-03-29T12:38:28.057Z,22.93
2017-03-29T12:39:27.995Z,22.9
2017-03-29T12:40:27.934Z,22.9
2017-03-29T12:41:27.562Z,22.91
2017-03-29T12:42:27.809Z,22.9
2017-03-29T12:43:27.751Z,22.9
2017-03-29T12:44:27.391Z,22.8
2017-03-29T12:45:27.314Z,22.9
2017-03-29T12:46:27.253Z,22.88
2017-03-29T12:47:27.868Z,22.87
2017-03-29T12:48:27.434Z,22.91
2017-03-29T12:49:27.064Z,22.88
2017-03-29T12:50:27.348Z,22.84
2017-03-29T12:51:27.251Z,22.94
2017-03-29T12:52:27.186Z,22.93
2017-03-29T12:53:27.125Z,22.96
2017-03-29T12:54:27.066Z,22.84
2017-03-29T12:55:27.153Z,22.84
2017-03-29T12:56:26.941Z,22.88
2017-03-29T12:57:26.577Z,22.9
2017-03-29T12:58:26.818Z,22.9